createdAt,value
2023-02-12T00:00:21.964Z,8.92
2023-02-12T00:02:49.531Z,7.64
2023-02-12T00:05:16.713Z,7.72
2023-02-12T00:07:43.823Z,8.39
2023-02-12T00:10:11.501Z,8.04
2023-02-12T00:12:38.648Z,7.55
2023-02-12T00:15:06.076Z,7.42
2023-02-12T00:17:33.503Z,7.74
2023-02-12T00:20:01.072Z,7.73
2023-02-12T00:22:29.668Z,7.67
2023-02-12T00:24:57.281Z,8.28
2023-02-12T00:27:24.864Z,9.02
2023-02-12T00:29:52.256Z,8.81
2023-02-12T00:32:19.739Z,8.97
2023-02-12T00:34:47.189Z,9.27
2023-02-12T00:37:16.304Z,8.56
2023-02-12T00:39:43.988Z,8.24
2023-02-12T00:42:11.303Z,8.29
2023-02-12T00:44:38.481Z,8.37
2023-02-12T00:47:06.065Z,7.09
2023-02-12T00:49:36.759Z,7.56
2023-02-12T00:52:04.652Z,7.23
2023-02-12T00:54:32.410Z,7.87
2023-02-12T00:56:59.660Z,7.44
2023-02-12T00:59:29.977Z,7.69
2023-02-12T01:01:57.553Z,7.58
2023-02-12T01:04:24.831Z,7.05
2023-02-12T01:06:52.038Z,7.29
2023-02-12T01:09:19.616Z,7.62
2023-02-12T01:11:48.599Z,7.20
2023-02-12T01:14:16.443Z,7.12
2023-02-12T01:16:44.116Z,7.01
2023-02-12T01:19:12.766Z,6.68
2023-02-12T01:21:40.064Z,6.64
2023-02-12T01:24:07.837Z,7.34
2023-02-12T01:26:35.565Z,6.30
2023-02-12T01:29:04.619Z,6.83
2023-02-12T01:31:33.460Z,7.02
2023-02-12T01:34:01.857Z,7.40
2023-02-12T01:36:29.396Z,6.84
2023-02-12T01:38:58.016Z,6.43
2023-02-12T01:41:29.006Z,7.25
2023-02-12T01:44:05.519Z,6.62
2023-02-12T01:46:32.695Z,6.44
2023-02-12T01:49:01.872Z,6.75
2023-02-12T01:51:29.093Z,6.54
2023-02-12T01:53:56.352Z,6.35
2023-02-12T01:56:23.864Z,6.34
2023-02-12T01:58:51.844Z,6.69
2023-02-12T02:01:20.479Z,6.45
2023-02-12T02:03:48.611Z,7.32
2023-02-12T02:06:21.474Z,7.34
2023-02-12T02:08:49.030Z,7.61
2023-02-12T02:11:35.220Z,7.52
2023-02-12T02:14:21.327Z,7.20
2023-02-12T02:17:01.691Z,7.31
2023-02-12T02:19:31.860Z,7.00
2023-02-12T02:22:02.630Z,7.32
2023-02-12T02:24:37.278Z,6.90
2023-02-12T02:27:19.186Z,6.72
2023-02-12T02:29:49.500Z,6.55
2023-02-12T02:32:18.537Z,6.77
2023-02-12T02:35:04.050Z,7.04
2023-02-12T02:37:41.440Z,6.67
2023-02-12T02:40:10.363Z,7.11
2023-02-12T02:42:44.961Z,7.43
2023-02-12T02:45:13.557Z,7.87
2023-02-12T02:48:04.437Z,8.36
2023-02-12T02:50:31.730Z,8.69
2023-02-12T02:53:06.615Z,8.56
2023-02-12T02:55:53.506Z,8.27
2023-02-12T02:58:25.033Z,8.82
2023-02-12T03:01:21.693Z,8.46
2023-02-12T03:03:50.606Z,8.45
2023-02-12T03:06:28.889Z,8.03
2023-02-12T03:08:58.074Z,8.15
2023-02-12T03:11:26.505Z,9.11
2023-02-12T03:14:04.578Z,9.89
2023-02-12T03:16:33.397Z,9.10
2023-02-12T03:19:36.480Z,8.49
2023-02-12T03:22:08.521Z,8.83
2023-02-12T03:24:38.734Z,9.05
2023-02-12T03:27:10.087Z,8.83
2023-02-12T03:29:37.286Z,9.08
2023-02-12T03:32:04.386Z,8.02
2023-02-12T03:34:50.272Z,8.04
2023-02-12T03:37:27.566Z,7.54
2023-02-12T03:39:56.927Z,6.92
2023-02-12T03:42:42.381Z,6.28
2023-02-12T03:45:39.250Z,6.63
2023-02-12T03:48:08.442Z,6.44
2023-02-12T03:50:40.825Z,6.31
2023-02-12T03:53:08.039Z,7.02
2023-02-12T03:55:36.356Z,6.76
2023-02-12T03:58:03.521Z,6.12
2023-02-12T04:00:30.664Z,6.07
2023-02-12T04:02:58.238Z,6.44
2023-02-12T04:05:26.339Z,6.00
2023-02-12T04:07:54.179Z,6.24
2023-02-12T04:10:27.800Z,5.86
2023-02-12T04:12:57.568Z,5.89
2023-02-12T04:15:37.952Z,6.75
2023-02-12T04:18:17.369Z,5.72
2023-02-12T04:20:57.152Z,5.92
2023-02-12T04:23:24.251Z,6.99
2023-02-12T04:25:53.974Z,6.05
2023-02-12T04:28:21.363Z,6.56
2023-02-12T04:30:54.622Z,7.10
2023-02-12T04:33:22.797Z,6.87
2023-02-12T04:36:22.526Z,6.08
2023-02-12T04:38:57.914Z,6.47
2023-02-12T04:41:25.494Z,6.30
2023-02-12T04:43:52.935Z,6.16
2023-02-12T04:46:20.147Z,5.76
2023-02-12T04:48:55.064Z,6.91
2023-02-12T04:51:22.653Z,7.86
2023-02-12T04:53:50.195Z,6.53
2023-02-12T04:56:17.326Z,5.98
2023-02-12T04:58:44.780Z,5.88
2023-02-12T05:01:11.973Z,6.20
2023-02-12T05:03:39.167Z,6.29
2023-02-12T05:06:08.055Z,5.69
2023-02-12T05:08:35.210Z,6.23
2023-02-12T05:11:08.518Z,6.03
2023-02-12T05:13:35.944Z,6.11
2023-02-12T05:16:06.490Z,5.85
2023-02-12T05:18:33.939Z,5.75
2023-02-12T05:21:02.427Z,6.04
2023-02-12T05:23:30.453Z,6.37
2023-02-12T05:26:01.425Z,6.31
2023-02-12T05:28:29.228Z,6.74
2023-02-12T05:30:59.911Z,6.65
2023-02-12T05:33:27.103Z,6.54
2023-02-12T05:35:55.719Z,5.95
2023-02-12T05:38:23.005Z,6.16
2023-02-12T05:40:50.148Z,6.45
2023-02-12T05:43:17.546Z,6.24
2023-02-12T05:45:45.072Z,6.29
2023-02-12T05:48:12.253Z,6.33
2023-02-12T05:50:39.650Z,6.01
2023-02-12T05:53:08.200Z,5.76
2023-02-12T05:55:35.329Z,5.82
2023-02-12T05:58:02.751Z,6.23
2023-02-12T06:00:29.879Z,6.45
2023-02-12T06:02:57.440Z,6.68
2023-02-12T06:05:24.584Z,6.21
2023-02-12T06:07:51.723Z,5.39
2023-02-12T06:10:19.154Z,5.53
2023-02-12T06:12:46.288Z,5.92
2023-02-12T06:15:13.484Z,6.41
2023-02-12T06:17:40.862Z,6.76
2023-02-12T06:20:08.139Z,6.75
2023-02-12T06:22:35.324Z,6.74
2023-02-12T06:25:02.782Z,6.72
2023-02-12T06:27:30.071Z,6.75
2023-02-12T06:29:57.212Z,6.70
2023-02-12T06:32:24.652Z,6.43
2023-02-12T06:34:51.778Z,6.91
2023-02-12T06:37:18.916Z,6.94
2023-02-12T06:39:46.331Z,6.99
2023-02-12T06:42:13.462Z,7.30
2023-02-12T06:44:40.618Z,7.02
2023-02-12T06:47:08.058Z,6.58
2023-02-12T06:49:35.239Z,7.18
2023-02-12T06:52:03.551Z,7.22
2023-02-12T06:54:31.056Z,7.45
2023-02-12T06:56:58.205Z,7.43
2023-02-12T06:59:25.324Z,7.16
2023-02-12T07:01:52.728Z,7.52
2023-02-12T07:04:19.952Z,7.06
2023-02-12T07:06:47.107Z,6.85
2023-02-12T07:09:14.514Z,6.81
2023-02-12T07:11:41.654Z,7.03
2023-02-12T07:14:12.489Z,6.68
2023-02-12T07:16:39.952Z,6.56
2023-02-12T07:19:07.153Z,6.36
2023-02-12T07:21:34.354Z,7.24
2023-02-12T07:24:01.772Z,7.30
2023-02-12T07:26:29.053Z,7.88
2023-02-12T07:28:56.779Z,8.20
2023-02-12T07:31:24.305Z,8.34
2023-02-12T07:33:55.338Z,8.27
2023-02-12T07:36:22.502Z,8.62
2023-02-12T07:38:50.191Z,8.91
2023-02-12T07:41:18.569Z,8.85
2023-02-12T07:43:46.790Z,8.07
2023-02-12T07:46:18.406Z,8.73
2023-02-12T07:48:46.078Z,8.65
2023-02-12T07:51:16.724Z,9.21
2023-02-12T07:53:43.878Z,9.19
2023-02-12T07:56:13.364Z,9.21
2023-02-12T07:58:41.221Z,9.05
2023-02-12T08:01:16.009Z,9.11
2023-02-12T08:03:43.688Z,9.02
2023-02-12T08:06:11.774Z,8.85
2023-02-12T08:08:39.072Z,9.12
2023-02-12T08:11:07.823Z,10.03
2023-02-12T08:13:35.575Z,9.36
2023-02-12T08:16:03.353Z,8.68
2023-02-12T08:18:31.507Z,9.46
2023-02-12T08:21:12.053Z,9.41
2023-02-12T08:23:39.539Z,9.61
2023-02-12T08:26:07.960Z,9.13
2023-02-12T08:28:35.497Z,8.77
2023-02-12T08:31:04.386Z,9.05
2023-02-12T08:33:31.537Z,8.99
2023-02-12T08:36:06.220Z,8.87
2023-02-12T08:38:33.884Z,9.15
2023-02-12T08:41:02.379Z,8.64
2023-02-12T08:43:29.543Z,9.32
2023-02-12T08:46:06.843Z,9.09
2023-02-12T08:48:34.068Z,9.54
2023-02-12T08:51:20.503Z,9.33
2023-02-12T08:53:48.219Z,9.19
2023-02-12T08:56:17.198Z,9.48
2023-02-12T08:58:44.580Z,9.40
2023-02-12T09:01:16.363Z,9.80
2023-02-12T09:03:46.684Z,9.82
2023-02-12T09:06:14.079Z,9.39
2023-02-12T09:08:41.260Z,10.16
2023-02-12T09:11:10.458Z,9.98
2023-02-12T09:13:37.598Z,9.26
2023-02-12T09:16:05.111Z,9.75
2023-02-12T09:18:32.723Z,9.82
2023-02-12T09:21:03.899Z,10.50
2023-02-12T09:23:31.037Z,10.71
2023-02-12T09:25:58.714Z,10.63
2023-02-12T09:28:26.107Z,9.70
2023-02-12T09:30:53.502Z,10.32
2023-02-12T09:33:22.714Z,10.91
2023-02-12T09:35:50.402Z,10.34
2023-02-12T09:38:17.542Z,10.91
2023-02-12T09:40:58.374Z,11.27
2023-02-12T09:43:44.450Z,10.67
2023-02-12T09:46:30.431Z,11.69
2023-02-12T09:48:57.777Z,10.35
2023-02-12T09:51:26.684Z,10.81
2023-02-12T09:53:56.531Z,11.14
2023-02-12T09:56:23.668Z,11.32
2023-02-12T09:58:55.565Z,10.93
2023-02-12T10:01:23.172Z,11.40
2023-02-12T10:03:51.004Z,11.12
2023-02-12T10:06:21.342Z,11.23
2023-02-12T10:08:51.594Z,11.73
2023-02-12T10:11:37.861Z,11.93
2023-02-12T10:14:23.809Z,11.80
2023-02-12T10:16:57.156Z,11.69
2023-02-12T10:19:33.686Z,11.45
2023-02-12T10:22:13.342Z,11.80
2023-02-12T10:24:48.330Z,12.04
2023-02-12T10:27:17.058Z,11.91
2023-02-12T10:29:45.448Z,11.93
2023-02-12T10:32:26.257Z,12.29
2023-02-12T10:34:55.664Z,11.61
2023-02-12T10:37:26.765Z,11.80
2023-02-12T10:39:55.764Z,11.33
2023-02-12T10:42:26.019Z,12.12
2023-02-12T10:44:54.257Z,12.11
2023-02-12T10:47:21.970Z,12.16
2023-02-12T10:49:56.255Z,12.56
2023-02-12T10:52:44.357Z,11.30
2023-02-12T10:55:29.480Z,11.81
2023-02-12T10:57:57.464Z,11.99
2023-02-12T11:00:35.333Z,12.84
2023-02-12T11:03:23.276Z,12.91
2023-02-12T11:05:50.974Z,12.97
2023-02-12T11:08:27.535Z,13.62
2023-02-12T11:10:55.143Z,13.70
2023-02-12T11:13:23.956Z,13.70
2023-02-12T11:15:51.957Z,13.99
2023-02-12T11:18:26.098Z,13.00
2023-02-12T11:20:55.620Z,13.57
2023-02-12T11:23:27.322Z,13.31
2023-02-12T11:26:03.953Z,13.74
2023-02-12T11:28:32.274Z,13.84
2023-02-12T11:31:15.364Z,14.26
2023-02-12T11:33:43.184Z,14.01
2023-02-12T11:36:18.489Z,14.33
2023-02-12T11:38:50.308Z,13.78
2023-02-12T11:41:24.360Z,13.51
2023-02-12T11:43:52.207Z,13.82
2023-02-12T11:46:21.576Z,13.85
2023-02-12T11:48:49.021Z,14.74
2023-02-12T11:51:20.411Z,14.63
2023-02-12T11:53:50.372Z,14.07
2023-02-12T11:56:17.698Z,14.33
2023-02-12T11:58:46.200Z,14.72
2023-02-12T12:01:25.209Z,14.93
2023-02-12T12:04:02.939Z,14.60
2023-02-12T12:06:35.507Z,15.52
2023-02-12T12:09:16.353Z,14.53
2023-02-12T12:11:46.965Z,15.04
2023-02-12T12:14:33.671Z,14.52
2023-02-12T12:17:19.173Z,15.03
2023-02-12T12:20:19.293Z,15.27
2023-02-12T12:23:05.428Z,15.45
2023-02-12T12:25:44.654Z,15.30
2023-02-12T12:28:29.174Z,15.37
2023-02-12T12:30:56.927Z,15.54
2023-02-12T12:33:31.012Z,16.00
2023-02-12T12:36:07.899Z,16.25
2023-02-12T12:38:36.320Z,15.89
2023-02-12T12:41:07.864Z,15.66
2023-02-12T12:43:54.280Z,15.43
2023-02-12T12:46:32.025Z,15.06
2023-02-12T12:48:59.843Z,15.28
2023-02-12T12:51:46.683Z,15.51
2023-02-12T12:54:26.139Z,16.01
2023-02-12T12:57:24.567Z,15.27
2023-02-12T12:59:57.807Z,15.15
2023-02-12T13:02:27.041Z,15.25
2023-02-12T13:05:14.163Z,15.72
2023-02-12T13:07:57.669Z,16.18
2023-02-12T13:10:25.009Z,16.40
2023-02-12T13:12:57.880Z,16.13
2023-02-12T13:15:25.671Z,15.59
2023-02-12T13:18:05.830Z,16.64
2023-02-12T13:20:43.241Z,16.78
2023-02-12T13:23:14.326Z,16.52
2023-02-12T13:25:47.746Z,16.43
2023-02-12T13:28:17.854Z,16.57
2023-02-12T13:30:46.686Z,16.70
2023-02-12T13:33:18.877Z,16.77
2023-02-12T13:35:47.111Z,17.00
2023-02-12T13:38:17.401Z,15.96
2023-02-12T13:40:45.148Z,15.22
2023-02-12T13:43:31.606Z,15.85
2023-02-12T13:45:59.107Z,15.09
2023-02-12T13:48:46.078Z,15.56
2023-02-12T13:51:13.844Z,15.79
2023-02-12T13:53:41.820Z,15.01
2023-02-12T13:56:26.950Z,15.39
2023-02-12T13:59:01.219Z,15.70
2023-02-12T14:01:39.984Z,15.68
2023-02-12T14:04:27.924Z,15.04
2023-02-12T14:06:59.767Z,14.61
2023-02-12T14:09:35.400Z,15.36
2023-02-12T14:12:03.192Z,14.63
2023-02-12T14:14:37.894Z,13.40
2023-02-12T14:17:24.835Z,13.34
2023-02-12T14:19:57.590Z,14.15
2023-02-12T14:22:25.402Z,13.00
2023-02-12T14:25:17.636Z,13.08
2023-02-12T14:27:45.676Z,14.36
2023-02-12T14:30:14.364Z,14.12
2023-02-12T14:32:45.729Z,13.31
2023-02-12T14:35:32.342Z,13.74
2023-02-12T14:38:01.139Z,14.49
2023-02-12T14:40:35.021Z,15.05
2023-02-12T14:43:04.633Z,15.39
2023-02-12T14:45:35.041Z,13.88
2023-02-12T14:48:03.670Z,14.84
2023-02-12T14:50:38.789Z,14.26
2023-02-12T14:53:34.034Z,13.83
2023-02-12T14:56:02.038Z,13.25
2023-02-12T14:58:33.455Z,13.64
2023-02-12T15:01:00.785Z,14.29
2023-02-12T15:03:34.683Z,13.18
2023-02-12T15:06:06.031Z,13.56
2023-02-12T15:08:38.356Z,14.31
2023-02-12T15:11:25.330Z,13.56
2023-02-12T15:14:17.008Z,14.29
2023-02-12T15:16:47.344Z,14.45
2023-02-12T15:19:19.990Z,14.26
2023-02-12T15:21:52.568Z,14.19
2023-02-12T15:24:24.859Z,14.48
2023-02-12T15:26:57.043Z,14.49
2023-02-12T15:29:28.142Z,14.68
2023-02-12T15:31:57.994Z,15.00
2023-02-12T15:34:27.999Z,14.91
2023-02-12T15:37:02.292Z,14.82
2023-02-12T15:39:33.939Z,15.16
2023-02-12T15:42:02.551Z,15.48
2023-02-12T15:44:31.789Z,15.53
2023-02-12T15:47:01.801Z,15.37
2023-02-12T15:49:35.955Z,15.29
2023-02-12T15:52:07.269Z,15.07
2023-02-12T15:54:36.721Z,14.93
2023-02-12T15:57:09.807Z,15.25
2023-02-12T15:59:38.703Z,14.95
2023-02-12T16:02:36.435Z,14.67
2023-02-12T16:05:12.492Z,14.66
2023-02-12T16:07:40.651Z,14.33
2023-02-12T16:10:11.350Z,13.92
2023-02-12T16:12:39.801Z,14.10
2023-02-12T16:15:31.946Z,14.27
2023-02-12T16:18:04.426Z,14.04
2023-02-12T16:20:34.904Z,14.01
2023-02-12T16:23:07.674Z,13.87
2023-02-12T16:25:35.825Z,13.85
2023-02-12T16:28:05.517Z,13.76
2023-02-12T16:30:34.857Z,13.66
2023-02-12T16:33:07.033Z,13.50
2023-02-12T16:35:36.015Z,13.70
2023-02-12T16:38:13.529Z,13.62
2023-02-12T16:40:42.278Z,13.42
2023-02-12T16:43:30.991Z,13.49
2023-02-12T16:46:02.458Z,13.58
2023-02-12T16:48:32.017Z,13.54
2023-02-12T16:51:00.396Z,13.60
2023-02-12T16:53:36.419Z,13.41
2023-02-12T16:58:50.942Z,13.18
2023-02-12T17:01:21.233Z,13.30
2023-02-12T17:03:51.627Z,13.15
2023-02-12T17:06:23.837Z,12.85
2023-02-12T17:08:55.021Z,12.60
2023-02-12T17:11:24.709Z,12.19
2023-02-12T17:13:53.430Z,11.96
2023-02-12T17:16:32.012Z,12.28
2023-02-12T17:19:01.444Z,12.25
2023-02-12T17:21:30.898Z,12.34
2023-02-12T17:23:59.046Z,12.39
2023-02-12T17:26:27.917Z,11.85
2023-02-12T17:28:58.287Z,12.04
2023-02-12T17:31:26.340Z,12.24
2023-02-12T17:33:54.529Z,12.30
2023-02-12T17:36:23.976Z,12.23
2023-02-12T17:38:52.445Z,12.21
2023-02-12T17:41:21.224Z,11.91
2023-02-12T17:43:49.371Z,11.91
2023-02-12T17:46:20.324Z,11.76
2023-02-12T17:48:49.067Z,11.96
2023-02-12T17:51:18.289Z,11.80
2023-02-12T17:53:47.415Z,11.61
2023-02-12T17:56:18.886Z,11.67
2023-02-12T17:58:47.752Z,11.68
2023-02-12T18:01:17.364Z,12.00
2023-02-12T18:03:47.059Z,12.23
2023-02-12T18:06:20.751Z,12.11
2023-02-12T18:08:54.070Z,12.10
2023-02-12T18:11:22.628Z,11.62
2023-02-12T18:13:55.242Z,11.71
2023-02-12T18:16:23.898Z,11.66
2023-02-12T18:18:54.404Z,11.71
2023-02-12T18:21:26.418Z,11.74
2023-02-12T18:23:55.620Z,11.54
2023-02-12T18:26:27.308Z,11.70
2023-02-12T18:28:58.951Z,11.71
2023-02-12T18:31:28.138Z,12.00
2023-02-12T18:33:57.168Z,11.96
2023-02-12T18:36:26.110Z,11.79
2023-02-12T18:38:56.715Z,11.91
2023-02-12T18:41:30.012Z,11.95
2023-02-12T18:43:59.017Z,11.63
2023-02-12T18:46:29.523Z,11.88
2023-02-12T18:49:05.996Z,11.68
2023-02-12T18:51:38.504Z,11.77
2023-02-12T18:54:09.249Z,11.72
2023-02-12T18:56:44.241Z,11.59
2023-02-12T18:59:14.098Z,11.56
2023-02-12T19:01:48.475Z,11.59
2023-02-12T19:04:23.739Z,11.42
2023-02-12T19:06:54.522Z,11.17
2023-02-12T19:09:25.053Z,11.20
2023-02-12T19:12:00.485Z,11.13
2023-02-12T19:14:29.467Z,11.06
2023-02-12T19:16:58.612Z,11.24
2023-02-12T19:19:37.795Z,10.74
2023-02-12T19:22:07.019Z,11.25
2023-02-12T19:24:46.367Z,10.97
2023-02-12T19:27:24.439Z,11.04
2023-02-12T19:29:52.710Z,11.16
2023-02-12T19:32:22.783Z,10.51
2023-02-12T19:34:52.657Z,10.65
2023-02-12T19:37:21.727Z,10.93
2023-02-12T19:39:50.399Z,10.96
2023-02-12T19:42:21.062Z,10.65
2023-02-12T19:44:51.705Z,10.80
2023-02-12T19:47:21.318Z,10.98
2023-02-12T19:49:51.377Z,11.00
2023-02-12T19:52:25.521Z,10.90
2023-02-12T19:54:54.866Z,11.10
2023-02-12T19:57:27.516Z,10.69
2023-02-12T19:59:56.155Z,10.74
2023-02-12T20:02:26.361Z,10.88
2023-02-12T20:04:55.040Z,10.87
2023-02-12T20:07:23.487Z,10.63
2023-02-12T20:09:52.787Z,10.63
2023-02-12T20:12:22.254Z,10.78
2023-02-12T20:14:53.460Z,10.89
2023-02-12T20:17:21.743Z,11.00
2023-02-12T20:19:53.098Z,11.00
2023-02-12T20:22:24.727Z,11.04
2023-02-12T20:24:56.920Z,11.11
2023-02-12T20:27:25.424Z,11.20
2023-02-12T20:29:55.785Z,11.01
2023-02-12T20:32:24.913Z,11.13
2023-02-12T20:34:53.646Z,11.16
2023-02-12T20:37:22.309Z,11.01
2023-02-12T20:39:50.917Z,10.99
2023-02-12T20:42:19.795Z,10.94
2023-02-12T20:44:48.173Z,10.78
2023-02-12T20:47:22.083Z,10.68
2023-02-12T20:49:51.280Z,10.75
2023-02-12T20:52:19.832Z,10.17
2023-02-12T20:54:48.111Z,10.53
2023-02-12T20:57:17.180Z,10.68
2023-02-12T20:59:45.540Z,10.44
2023-02-12T21:02:13.967Z,10.38
2023-02-12T21:04:42.587Z,10.58
2023-02-12T21:07:10.541Z,10.33
2023-02-12T21:09:38.740Z,10.41
2023-02-12T21:12:06.661Z,10.61
2023-02-12T21:14:36.501Z,10.28
2023-02-12T21:17:04.378Z,10.27
2023-02-12T21:19:35.125Z,10.27
2023-02-12T21:22:04.511Z,10.41
2023-02-12T21:24:34.397Z,9.98
2023-02-12T21:27:02.320Z,10.10
2023-02-12T21:29:33.580Z,10.22
2023-02-12T21:32:02.327Z,10.31
2023-02-12T21:34:30.423Z,10.24
2023-02-12T21:36:58.272Z,10.02
2023-02-12T21:39:28.110Z,9.98
2023-02-12T21:42:01.701Z,10.10
2023-02-12T21:44:30.939Z,10.08
2023-02-12T21:46:59.028Z,9.95
2023-02-12T21:49:28.052Z,10.16
2023-02-12T21:52:02.619Z,10.08
2023-02-12T21:54:31.031Z,10.10
2023-02-12T21:56:59.804Z,10.04
2023-02-12T21:59:28.210Z,10.08
2023-02-12T22:01:59.054Z,9.99
2023-02-12T22:04:27.079Z,9.84
2023-02-12T22:06:54.865Z,9.86
2023-02-12T22:09:22.483Z,9.80
2023-02-12T22:11:52.174Z,9.88
2023-02-12T22:14:20.241Z,9.90
2023-02-12T22:16:47.780Z,9.73
2023-02-12T22:19:15.335Z,9.68
2023-02-12T22:21:43.170Z,9.73
2023-02-12T22:24:12.217Z,9.78
2023-02-12T22:26:39.664Z,9.90
2023-02-12T22:29:07.857Z,9.62
2023-02-12T22:31:35.994Z,9.57
2023-02-12T22:34:05.065Z,9.67
2023-02-12T22:36:33.747Z,9.42
2023-02-12T22:39:01.083Z,9.20
2023-02-12T22:41:29.123Z,9.49
2023-02-12T22:43:58.769Z,9.93
2023-02-12T22:46:26.600Z,9.80
2023-02-12T22:48:54.365Z,9.71
2023-02-12T22:51:22.528Z,9.71
2023-02-12T22:53:49.664Z,9.82
2023-02-12T22:56:17.202Z,9.82
2023-02-12T22:58:44.749Z,9.88
2023-02-12T23:01:15.623Z,10.01
2023-02-12T23:03:43.443Z,9.84
2023-02-12T23:06:11.660Z,9.86
2023-02-12T23:08:39.102Z,9.97
2023-02-12T23:11:08.527Z,9.80
2023-02-12T23:13:36.249Z,9.77
2023-02-12T23:16:04.104Z,9.55
2023-02-12T23:18:31.888Z,9.73
2023-02-12T23:20:59.368Z,9.60
2023-02-12T23:23:26.751Z,9.83
2023-02-12T23:25:54.707Z,9.85
2023-02-12T23:28:22.271Z,9.79
2023-02-12T23:30:50.548Z,9.79
2023-02-12T23:33:19.565Z,10.05
2023-02-12T23:35:46.997Z,9.80
2023-02-12T23:38:14.168Z,9.68
2023-02-12T23:40:41.811Z,9.68
2023-02-12T23:43:09.106Z,9.45
2023-02-12T23:45:36.287Z,9.52
2023-02-12T23:48:03.736Z,9.77
2023-02-12T23:50:30.893Z,9.60
2023-02-12T23:52:58.675Z,9.71
2023-02-12T23:55:26.413Z,9.50
2023-02-12T23:57:53.641Z,9.46
